Mar Lin, Pennsylvania
Current Conditions -  °F | °C
As of 10:58 PM on Tuesday 27 Jan 2015 (Local Time) from KMUI Reporting Station
Clear Clear  
Wind Chill:   Ceiling: Unl
Heat Index: 17°   Visibility: 10mi
Dew Point:   Wind: 21mph
Humidity: 54%   Direction: 340°NNW
Pressure: 29.94"   Gusts: 38mph
Location:  40.68°N, 76.24°W
Report Text: KMUI 280358Z AUTO 34018G33KT 10SM CLR M08/M16 A2994 RMK AO2 PK WND 31033/53 SLP149 T10841163
Loading
Personal Weather Stations






























Interactive Weather Map New forecast layout! Learn more

10-Day Weather Forecast

Advertisements
Track Severe Weather on mobile